sensor_id;sensor_type;location;lat;lon;timestamp;pressure;altitude;pressure_sealevel;temperature;humidity
54900;BME280;40801;41.924;25.562;2023-10-09T00:01:26;99753.50;;;21.81;45.36
54900;BME280;40801;41.924;25.562;2023-10-09T00:03:51;99753.13;;;21.82;45.09
54900;BME280;40801;41.924;25.562;2023-10-09T00:06:22;99748.31;;;21.76;44.23
54900;BME280;40801;41.924;25.562;2023-10-09T00:09:03;99748.00;;;21.81;43.69
54900;BME280;40801;41.924;25.562;2023-10-09T00:11:47;99742.19;;;21.86;43.11
54900;BME280;40801;41.924;25.562;2023-10-09T00:14:14;99741.09;;;21.94;42.86
54900;BME280;40801;41.924;25.562;2023-10-09T00:16:41;99743.56;;;21.99;43.02
54900;BME280;40801;41.924;25.562;2023-10-09T00:19:14;99743.97;;;22.01;42.58
54900;BME280;40801;41.924;25.562;2023-10-09T00:21:44;99776.06;;;21.97;43.25
54900;BME280;40801;41.924;25.562;2023-10-09T00:24:10;99790.72;;;21.78;43.33
54900;BME280;40801;41.924;25.562;2023-10-09T00:26:50;99800.84;;;21.74;43.75
54900;BME280;40801;41.924;25.562;2023-10-09T00:29:17;99782.22;;;21.60;44.31
54900;BME280;40801;41.924;25.562;2023-10-09T00:31:57;99778.56;;;21.53;45.12
54900;BME280;40801;41.924;25.562;2023-10-09T00:34:41;99791.75;;;21.44;45.09
54900;BME280;40801;41.924;25.562;2023-10-09T00:37:09;99790.50;;;21.18;46.46
54900;BME280;40801;41.924;25.562;2023-10-09T00:39:52;99789.81;;;21.02;46.67
54900;BME280;40801;41.924;25.562;2023-10-09T00:42:25;99790.06;;;20.93;47.91
54900;BME280;40801;41.924;25.562;2023-10-09T00:44:58;99798.00;;;20.98;47.37
54900;BME280;40801;41.924;25.562;2023-10-09T00:47:30;99823.69;;;20.90;48.10
54900;BME280;40801;41.924;25.562;2023-10-09T00:50:07;99833.44;;;20.68;49.73
54900;BME280;40801;41.924;25.562;2023-10-09T00:52:49;99843.91;;;20.63;50.36
54900;BME280;40801;41.924;25.562;2023-10-09T00:55:18;99837.22;;;20.60;50.74
54900;BME280;40801;41.924;25.562;2023-10-09T00:58:08;99839.63;;;20.46;51.99
54900;BME280;40801;41.924;25.562;2023-10-09T01:00:43;99834.81;;;20.24;53.00
54900;BME280;40801;41.924;25.562;2023-10-09T01:03:09;99835.09;;;20.19;53.74
54900;BME280;40801;41.924;25.562;2023-10-09T01:06:00;99842.81;;;20.13;54.10
54900;BME280;40801;41.924;25.562;2023-10-09T01:08:42;99857.50;;;19.89;55.34
54900;BME280;40801;41.924;25.562;2023-10-09T01:13:40;99854.44;;;19.59;55.98
54900;BME280;40801;41.924;25.562;2023-10-09T01:16:12;99867.75;;;19.45;56.48
54900;BME280;40801;41.924;25.562;2023-10-09T01:18:41;99869.59;;;19.41;56.48
54900;BME280;40801;41.924;25.562;2023-10-09T01:21:07;99871.53;;;19.40;56.47
54900;BME280;40801;41.924;25.562;2023-10-09T01:23:32;99878.94;;;19.40;56.38
54900;BME280;40801;41.924;25.562;2023-10-09T01:25:57;99887.28;;;19.31;56.50
54900;BME280;40801;41.924;25.562;2023-10-09T01:28:23;99888.88;;;19.32;55.97
54900;BME280;40801;41.924;25.562;2023-10-09T01:30:50;99888.16;;;19.19;56.16
54900;BME280;40801;41.924;25.562;2023-10-09T01:33:16;99896.72;;;19.18;56.10
54900;BME280;40801;41.924;25.562;2023-10-09T01:35:52;99905.63;;;19.15;55.93
54900;BME280;40801;41.924;25.562;2023-10-09T01:38:23;99893.09;;;19.14;55.88
54900;BME280;40801;41.924;25.562;2023-10-09T01:41:10;99891.81;;;18.96;56.27
54900;BME280;40801;41.924;25.562;2023-10-09T01:43:40;99897.97;;;18.93;55.99
54900;BME280;40801;41.924;25.562;2023-10-09T01:46:10;99900.59;;;18.89;54.60
54900;BME280;40801;41.924;25.562;2023-10-09T01:48:36;99922.38;;;18.73;54.31
54900;BME280;40801;41.924;25.562;2023-10-09T01:51:05;99933.56;;;18.44;54.31
54900;BME280;40801;41.924;25.562;2023-10-09T01:53:30;99936.53;;;18.51;53.77
54900;BME280;40801;41.924;25.562;2023-10-09T01:55:56;99941.88;;;18.47;53.41
54900;BME280;40801;41.924;25.562;2023-10-09T01:58:24;99960.00;;;18.27;53.29
54900;BME280;40801;41.924;25.562;2023-10-09T02:00:50;99971.47;;;18.21;53.29
54900;BME280;40801;41.924;25.562;2023-10-09T02:03:22;99971.00;;;18.19;52.75
54900;BME280;40801;41.924;25.562;2023-10-09T02:06:01;99986.16;;;18.29;51.91
54900;BME280;40801;41.924;25.562;2023-10-09T02:08:42;99987.28;;;18.15;51.83
54900;BME280;40801;41.924;25.562;2023-10-09T02:11:14;99999.72;;;18.25;51.35
54900;BME280;40801;41.924;25.562;2023-10-09T02:13:45;100007.91;;;18.25;51.27
54900;BME280;40801;41.924;25.562;2023-10-09T02:16:12;100015.16;;;18.21;50.99
54900;BME280;40801;41.924;25.562;2023-10-09T02:18:41;100020.03;;;18.03;50.16
54900;BME280;40801;41.924;25.562;2023-10-09T02:21:19;100025.38;;;18.00;49.55
54900;BME280;40801;41.924;25.562;2023-10-09T02:23:58;100029.19;;;17.74;49.41
54900;BME280;40801;41.924;25.562;2023-10-09T02:26:28;100038.38;;;17.70;49.03
54900;BME280;40801;41.924;25.562;2023-10-09T02:29:14;100042.22;;;17.69;48.72
54900;BME280;40801;41.924;25.562;2023-10-09T02:31:39;100042.88;;;17.65;48.49
54900;BME280;40801;41.924;25.562;2023-10-09T02:34:17;100045.44;;;17.62;48.49
54900;BME280;40801;41.924;25.562;2023-10-09T02:36:46;100055.78;;;17.56;48.04
54900;BME280;40801;41.924;25.562;2023-10-09T02:39:23;100063.03;;;17.52;47.83
54900;BME280;40801;41.924;25.562;2023-10-09T02:41:53;100062.66;;;17.42;48.09
54900;BME280;40801;41.924;25.562;2023-10-09T02:44:23;100064.63;;;17.32;48.05
54900;BME280;40801;41.924;25.562;2023-10-09T02:46:50;100072.75;;;17.20;48.04
54900;BME280;40801;41.924;25.562;2023-10-09T02:49:16;100075.09;;;17.10;48.22
54900;BME280;40801;41.924;25.562;2023-10-09T02:51:41;100073.66;;;17.03;48.28
54900;BME280;40801;41.924;25.562;2023-10-09T02:54:08;100073.25;;;16.93;48.07
54900;BME280;40801;41.924;25.562;2023-10-09T02:56:52;100073.97;;;16.81;48.61
54900;BME280;40801;41.924;25.562;2023-10-09T02:59:23;100071.50;;;16.59;48.67
54900;BME280;40801;41.924;25.562;2023-10-09T03:01:49;100075.63;;;16.27;48.77
54900;BME280;40801;41.924;25.562;2023-10-09T03:04:15;100092.75;;;16.27;48.78
54900;BME280;40801;41.924;25.562;2023-10-09T03:06:41;100085.38;;;16.28;48.97
54900;BME280;40801;41.924;25.562;2023-10-09T03:09:20;100090.94;;;16.40;48.77
54900;BME280;40801;41.924;25.562;2023-10-09T03:11:59;100094.44;;;16.49;48.40
54900;BME280;40801;41.924;25.562;2023-10-09T03:14:33;100097.47;;;16.48;48.39
54900;BME280;40801;41.924;25.562;2023-10-09T03:17:01;100113.34;;;16.46;47.94
54900;BME280;40801;41.924;25.562;2023-10-09T03:19:28;100117.50;;;16.43;48.00
54900;BME280;40801;41.924;25.562;2023-10-09T03:21:54;100121.03;;;16.43;47.78
54900;BME280;40801;41.924;25.562;2023-10-09T03:24:23;100128.25;;;16.48;47.84
54900;BME280;40801;41.924;25.562;2023-10-09T03:26:48;100123.59;;;16.49;48.18
54900;BME280;40801;41.924;25.562;2023-10-09T03:29:15;100125.06;;;16.37;47.83
54900;BME280;40801;41.924;25.562;2023-10-09T03:31:40;100124.16;;;16.25;47.92
54900;BME280;40801;41.924;25.562;2023-10-09T03:34:08;100138.03;;;16.32;47.56
54900;BME280;40801;41.924;25.562;2023-10-09T03:36:36;100140.13;;;16.35;47.51
54900;BME280;40801;41.924;25.562;2023-10-09T03:39:05;100125.72;;;16.34;47.41
54900;BME280;40801;41.924;25.562;2023-10-09T03:41:44;100138.41;;;16.22;48.18
54900;BME280;40801;41.924;25.562;2023-10-09T03:44:14;100150.09;;;16.14;47.69
54900;BME280;40801;41.924;25.562;2023-10-09T03:46:39;100156.31;;;16.14;47.85
54900;BME280;40801;41.924;25.562;2023-10-09T03:49:09;100156.50;;;16.09;48.22
54900;BME280;40801;41.924;25.562;2023-10-09T03:51:37;100170.28;;;16.04;48.14
54900;BME280;40801;41.924;25.562;2023-10-09T03:54:02;100169.00;;;16.01;47.68
54900;BME280;40801;41.924;25.562;2023-10-09T03:56:32;100174.28;;;15.98;47.79
54900;BME280;40801;41.924;25.562;2023-10-09T03:58:57;100173.31;;;15.85;47.97
54900;BME280;40801;41.924;25.562;2023-10-09T04:01:23;100184.34;;;15.89;47.47
54900;BME280;40801;41.924;25.562;2023-10-09T04:03:50;100180.66;;;15.85;47.57
54900;BME280;40801;41.924;25.562;2023-10-09T04:06:23;100187.72;;;15.68;47.65
54900;BME280;40801;41.924;25.562;2023-10-09T04:08:54;100192.69;;;15.66;47.39
54900;BME280;40801;41.924;25.562;2023-10-09T04:11:20;100198.75;;;15.80;47.06
54900;BME280;40801;41.924;25.562;2023-10-09T04:13:49;100196.34;;;15.79;47.26
54900;BME280;40801;41.924;25.562;2023-10-09T04:16:25;100202.28;;;15.64;47.14
54900;BME280;40801;41.924;25.562;2023-10-09T04:19:00;100220.66;;;15.67;46.80
54900;BME280;40801;41.924;25.562;2023-10-09T04:21:30;100222.69;;;15.53;46.88
54900;BME280;40801;41.924;25.562;2023-10-09T04:24:07;100222.03;;;15.56;46.38
54900;BME280;40801;41.924;25.562;2023-10-09T04:26:35;100217.41;;;15.56;46.64
54900;BME280;40801;41.924;25.562;2023-10-09T04:29:02;100225.78;;;15.68;46.14
54900;BME280;40801;41.924;25.562;2023-10-09T04:31:28;100226.09;;;15.75;45.93
54900;BME280;40801;41.924;25.562;2023-10-09T04:34:03;100236.34;;;15.70;46.17
54900;BME280;40801;41.924;25.562;2023-10-09T04:36:50;100244.34;;;15.75;45.99
54900;BME280;40801;41.924;25.562;2023-10-09T04:39:17;100246.44;;;15.78;45.79
54900;BME280;40801;41.924;25.562;2023-10-09T04:41:55;100265.00;;;15.85;45.74
54900;BME280;40801;41.924;25.562;2023-10-09T04:44:40;100265.03;;;15.93;45.69
54900;BME280;40801;41.924;25.562;2023-10-09T04:47:25;100263.56;;;16.04;45.36
54900;BME280;40801;41.924;25.562;2023-10-09T04:50:10;100253.66;;;15.91;45.41
54900;BME280;40801;41.924;25.562;2023-10-09T04:52:58;100250.13;;;15.99;45.04
54900;BME280;40801;41.924;25.562;2023-10-09T04:55:44;100245.16;;;15.84;45.21
54900;BME280;40801;41.924;25.562;2023-10-09T04:58:23;100252.19;;;15.85;45.03
54900;BME280;40801;41.924;25.562;2023-10-09T05:00:50;100268.66;;;15.80;45.35
54900;BME280;40801;41.924;25.562;2023-10-09T05:03:25;100281.00;;;15.86;45.22
54900;BME280;40801;41.924;25.562;2023-10-09T05:05:54;100286.41;;;15.77;45.01
54900;BME280;40801;41.924;25.562;2023-10-09T05:08:45;100298.25;;;15.73;44.73
54900;BME280;40801;41.924;25.562;2023-10-09T05:11:11;100304.19;;;15.84;44.84
54900;BME280;40801;41.924;25.562;2023-10-09T05:13:55;100284.66;;;15.82;44.81
54900;BME280;40801;41.924;25.562;2023-10-09T05:16:37;100298.16;;;15.95;44.44
54900;BME280;40801;41.924;25.562;2023-10-09T05:19:03;100306.94;;;16.01;44.78
54900;BME280;40801;41.924;25.562;2023-10-09T05:21:36;100310.47;;;16.01;44.08
54900;BME280;40801;41.924;25.562;2023-10-09T05:24:12;100317.66;;;16.06;44.15
54900;BME280;40801;41.924;25.562;2023-10-09T05:26:48;100322.63;;;16.04;43.95
54900;BME280;40801;41.924;25.562;2023-10-09T05:31:51;100332.81;;;15.72;42.87
54900;BME280;40801;41.924;25.562;2023-10-09T05:34:35;100309.94;;;15.82;43.09
54900;BME280;40801;41.924;25.562;2023-10-09T05:37:19;100310.00;;;15.99;43.04
54900;BME280;40801;41.924;25.562;2023-10-09T05:39:51;100314.78;;;16.02;43.08
54900;BME280;40801;41.924;25.562;2023-10-09T05:42:29;100319.38;;;15.76;42.94
54900;BME280;40801;41.924;25.562;2023-10-09T05:45:16;100326.63;;;16.06;42.69
54900;BME280;40801;41.924;25.562;2023-10-09T05:47:44;100329.22;;;16.20;42.41
54900;BME280;40801;41.924;25.562;2023-10-09T05:50:23;100321.06;;;16.37;42.14
54900;BME280;40801;41.924;25.562;2023-10-09T05:52:50;100330.34;;;16.71;41.76
54900;BME280;40801;41.924;25.562;2023-10-09T05:55:24;100332.75;;;16.90;41.34
54900;BME280;40801;41.924;25.562;2023-10-09T05:57:51;100351.97;;;16.93;41.22
54900;BME280;40801;41.924;25.562;2023-10-09T06:00:28;100347.94;;;17.08;40.84
54900;BME280;40801;41.924;25.562;2023-10-09T06:03:12;100348.91;;;17.12;41.39
54900;BME280;40801;41.924;25.562;2023-10-09T06:05:43;100346.00;;;17.17;41.20
54900;BME280;40801;41.924;25.562;2023-10-09T06:08:30;100355.03;;;17.47;40.90
54900;BME280;40801;41.924;25.562;2023-10-09T06:11:06;100354.09;;;17.43;40.64
54900;BME280;40801;41.924;25.562;2023-10-09T06:13:52;100362.56;;;17.50;40.23
54900;BME280;40801;41.924;25.562;2023-10-09T06:16:44;100365.19;;;17.38;40.42
54900;BME280;40801;41.924;25.562;2023-10-09T06:19:27;100386.19;;;17.29;40.94
54900;BME280;40801;41.924;25.562;2023-10-09T06:21:58;100391.78;;;17.32;40.75
54900;BME280;40801;41.924;25.562;2023-10-09T06:24:47;100390.69;;;17.25;40.90
54900;BME280;40801;41.924;25.562;2023-10-09T06:27:15;100394.25;;;17.17;40.99
54900;BME280;40801;41.924;25.562;2023-10-09T06:30:00;100397.94;;;17.21;40.82
54900;BME280;40801;41.924;25.562;2023-10-09T06:32:44;100396.78;;;17.30;40.97
54900;BME280;40801;41.924;25.562;2023-10-09T06:35:18;100401.44;;;17.30;40.99
54900;BME280;40801;41.924;25.562;2023-10-09T06:37:49;100410.25;;;17.36;41.06
54900;BME280;40801;41.924;25.562;2023-10-09T06:40:32;100419.72;;;17.29;40.53
54900;BME280;40801;41.924;25.562;2023-10-09T06:43:18;100423.25;;;17.30;40.62
54900;BME280;40801;41.924;25.562;2023-10-09T06:45:56;100428.69;;;17.30;40.72
54900;BME280;40801;41.924;25.562;2023-10-09T06:48:40;100435.09;;;17.43;40.49
54900;BME280;40801;41.924;25.562;2023-10-09T06:51:07;100428.75;;;17.77;40.26
54900;BME280;40801;41.924;25.562;2023-10-09T06:53:52;100437.81;;;17.98;39.73
54900;BME280;40801;41.924;25.562;2023-10-09T06:56:20;100438.16;;;17.97;39.50
54900;BME280;40801;41.924;25.562;2023-10-09T06:58:59;100441.16;;;17.57;38.70
54900;BME280;40801;41.924;25.562;2023-10-09T07:01:29;100431.19;;;17.61;39.17
54900;BME280;40801;41.924;25.562;2023-10-09T07:04:11;100440.66;;;17.72;39.32
54900;BME280;40801;41.924;25.562;2023-10-09T07:06:46;100441.94;;;17.75;39.70
54900;BME280;40801;41.924;25.562;2023-10-09T07:09:12;100438.66;;;17.90;39.27
54900;BME280;40801;41.924;25.562;2023-10-09T07:11:40;100446.50;;;18.00;39.23
54900;BME280;40801;41.924;25.562;2023-10-09T07:14:11;100441.38;;;17.90;39.27
54900;BME280;40801;41.924;25.562;2023-10-09T07:17:07;100444.84;;;18.37;38.38
54900;BME280;40801;41.924;25.562;2023-10-09T07:20:02;100451.66;;;18.81;38.60
54900;BME280;40801;41.924;25.562;2023-10-09T07:22:41;100451.16;;;19.00;38.44
54900;BME280;40801;41.924;25.562;2023-10-09T07:25:21;100447.22;;;19.43;37.23
54900;BME280;40801;41.924;25.562;2023-10-09T07:27:57;100438.69;;;19.44;37.34
54900;BME280;40801;41.924;25.562;2023-10-09T07:30:27;100444.16;;;20.26;36.61
54900;BME280;40801;41.924;25.562;2023-10-09T07:33:06;100447.75;;;20.67;35.62
54900;BME280;40801;41.924;25.562;2023-10-09T07:35:45;100449.50;;;21.55;34.23
54900;BME280;40801;41.924;25.562;2023-10-09T07:38:22;100450.22;;;21.84;34.31
54900;BME280;40801;41.924;25.562;2023-10-09T07:40:50;100444.81;;;22.03;33.87
54900;BME280;40801;41.924;25.562;2023-10-09T07:43:38;100441.28;;;22.18;32.19
54900;BME280;40801;41.924;25.562;2023-10-09T07:46:17;100450.31;;;22.19;33.60
54900;BME280;40801;41.924;25.562;2023-10-09T07:48:56;100443.63;;;22.71;32.95
54900;BME280;40801;41.924;25.562;2023-10-09T07:51:24;100450.44;;;23.35;31.68
54900;BME280;40801;41.924;25.562;2023-10-09T07:53:56;100445.19;;;23.68;31.62
54900;BME280;40801;41.924;25.562;2023-10-09T07:56:39;100433.81;;;24.19;29.92
54900;BME280;40801;41.924;25.562;2023-10-09T07:59:11;100428.31;;;25.06;29.70
54900;BME280;40801;41.924;25.562;2023-10-09T08:01:43;100434.94;;;25.35;28.57
54900;BME280;40801;41.924;25.562;2023-10-09T08:04:22;100436.41;;;25.62;28.94
54900;BME280;40801;41.924;25.562;2023-10-09T08:07:08;100426.91;;;25.19;29.09
54900;BME280;40801;41.924;25.562;2023-10-09T08:09:35;100432.75;;;25.51;29.10
54900;BME280;40801;41.924;25.562;2023-10-09T08:12:13;100422.53;;;25.99;28.35
54900;BME280;40801;41.924;25.562;2023-10-09T08:14:41;100426.16;;;26.07;28.95
54900;BME280;40801;41.924;25.562;2023-10-09T08:17:08;100419.53;;;26.91;27.74
54900;BME280;40801;41.924;25.562;2023-10-09T08:19:42;100426.72;;;27.03;27.44
54900;BME280;40801;41.924;25.562;2023-10-09T08:22:29;100432.34;;;27.42;26.54
54900;BME280;40801;41.924;25.562;2023-10-09T08:24:56;100424.09;;;27.70;27.01
54900;BME280;40801;41.924;25.562;2023-10-09T08:27:25;100424.88;;;27.74;26.16
54900;BME280;40801;41.924;25.562;2023-10-09T08:30:02;100425.31;;;27.80;26.03
54900;BME280;40801;41.924;25.562;2023-10-09T08:32:47;100419.34;;;27.85;26.09
54900;BME280;40801;41.924;25.562;2023-10-09T08:35:28;100422.53;;;27.87;25.45
54900;BME280;40801;41.924;25.562;2023-10-09T08:38:00;100419.31;;;28.31;25.44
54900;BME280;40801;41.924;25.562;2023-10-09T08:40:37;100414.59;;;27.71;25.40
54900;BME280;40801;41.924;25.562;2023-10-09T08:43:17;100412.19;;;28.02;25.02
54900;BME280;40801;41.924;25.562;2023-10-09T08:45:53;100405.00;;;28.47;24.95
54900;BME280;40801;41.924;25.562;2023-10-09T08:48:20;100417.56;;;28.80;24.68
54900;BME280;40801;41.924;25.562;2023-10-09T08:50:48;100406.66;;;29.25;24.34
54900;BME280;40801;41.924;25.562;2023-10-09T08:53:15;100409.41;;;30.29;23.44
54900;BME280;40801;41.924;25.562;2023-10-09T08:55:42;100403.94;;;30.21;23.43
54900;BME280;40801;41.924;25.562;2023-10-09T08:58:08;100398.13;;;29.57;23.39
54900;BME280;40801;41.924;25.562;2023-10-09T09:00:44;100405.50;;;29.19;24.24
54900;BME280;40801;41.924;25.562;2023-10-09T09:03:12;100400.97;;;29.43;23.92
54900;BME280;40801;41.924;25.562;2023-10-09T09:05:37;100403.63;;;29.64;23.97
54900;BME280;40801;41.924;25.562;2023-10-09T09:08:03;100394.94;;;30.78;22.71
54900;BME280;40801;41.924;25.562;2023-10-09T09:10:29;100394.97;;;30.00;23.40
54900;BME280;40801;41.924;25.562;2023-10-09T09:13:03;100388.56;;;30.06;22.94
54900;BME280;40801;41.924;25.562;2023-10-09T09:15:30;100390.66;;;29.95;23.09
54900;BME280;40801;41.924;25.562;2023-10-09T09:18:04;100390.13;;;30.48;22.23
54900;BME280;40801;41.924;25.562;2023-10-09T09:20:34;100395.75;;;30.04;22.95
54900;BME280;40801;41.924;25.562;2023-10-09T09:23:02;100389.09;;;28.62;23.56
54900;BME280;40801;41.924;25.562;2023-10-09T09:25:44;100388.44;;;28.12;24.09
54900;BME280;40801;41.924;25.562;2023-10-09T09:28:12;100385.28;;;27.60;24.62
54900;BME280;40801;41.924;25.562;2023-10-09T09:30:46;100380.94;;;27.80;24.59
54900;BME280;40801;41.924;25.562;2023-10-09T09:33:26;100383.69;;;27.91;24.67
54900;BME280;40801;41.924;25.562;2023-10-09T09:36:02;100378.09;;;28.30;23.77
54900;BME280;40801;41.924;25.562;2023-10-09T09:38:29;100380.94;;;27.84;24.88
54900;BME280;40801;41.924;25.562;2023-10-09T09:41:08;100374.44;;;28.54;24.81
54900;BME280;40801;41.924;25.562;2023-10-09T09:43:34;100367.50;;;29.64;23.58
54900;BME280;40801;41.924;25.562;2023-10-09T09:46:01;100366.69;;;29.64;23.49
54900;BME280;40801;41.924;25.562;2023-10-09T09:48:39;100380.41;;;29.33;23.35
54900;BME280;40801;41.924;25.562;2023-10-09T09:51:13;100370.66;;;30.11;22.47
54900;BME280;40801;41.924;25.562;2023-10-09T09:53:42;100356.03;;;31.02;22.13
54900;BME280;40801;41.924;25.562;2023-10-09T09:56:14;100357.91;;;31.08;21.45
54900;BME280;40801;41.924;25.562;2023-10-09T09:58:45;100361.94;;;30.77;21.92
54900;BME280;40801;41.924;25.562;2023-10-09T10:01:19;100355.84;;;29.80;22.73
54900;BME280;40801;41.924;25.562;2023-10-09T10:04:01;100357.44;;;29.25;23.03
54900;BME280;40801;41.924;25.562;2023-10-09T10:06:31;100345.94;;;29.27;22.94
54900;BME280;40801;41.924;25.562;2023-10-09T10:08:58;100339.00;;;29.53;23.31
54900;BME280;40801;41.924;25.562;2023-10-09T10:11:44;100337.47;;;29.89;22.54
54900;BME280;40801;41.924;25.562;2023-10-09T10:14:13;100327.03;;;31.73;20.94
54900;BME280;40801;41.924;25.562;2023-10-09T10:22:41;100312.13;;;32.23;20.86
54900;BME280;40801;41.924;25.562;2023-10-09T10:25:41;100302.97;;;31.09;20.27
54900;BME280;40801;41.924;25.562;2023-10-09T10:31:01;100298.97;;;31.10;21.61
54900;BME280;40801;41.924;25.562;2023-10-09T10:36:24;100291.34;;;32.63;20.32
54900;BME280;40801;41.924;25.562;2023-10-09T10:39:04;100274.88;;;32.33;19.95
54900;BME280;40801;41.924;25.562;2023-10-09T10:41:30;100267.06;;;32.44;20.51
54900;BME280;40801;41.924;25.562;2023-10-09T10:44:01;100255.09;;;32.96;20.12
54900;BME280;40801;41.924;25.562;2023-10-09T10:46:47;100243.41;;;33.34;19.24
54900;BME280;40801;41.924;25.562;2023-10-09T10:49:19;100236.31;;;34.03;18.56
54900;BME280;40801;41.924;25.562;2023-10-09T10:51:49;100232.81;;;33.70;18.99
54900;BME280;40801;41.924;25.562;2023-10-09T10:54:23;100231.25;;;33.85;18.97
54900;BME280;40801;41.924;25.562;2023-10-09T10:57:20;100233.38;;;34.48;18.28
54900;BME280;40801;41.924;25.562;2023-10-09T10:59:56;100226.00;;;34.00;19.40
54900;BME280;40801;41.924;25.562;2023-10-09T11:02:43;100230.25;;;33.63;18.98
54900;BME280;40801;41.924;25.562;2023-10-09T11:05:09;100232.06;;;33.53;19.55
54900;BME280;40801;41.924;25.562;2023-10-09T11:07:57;100231.75;;;34.22;19.13
54900;BME280;40801;41.924;25.562;2023-10-09T11:10:23;100223.97;;;34.68;18.53
54900;BME280;40801;41.924;25.562;2023-10-09T11:12:53;100220.03;;;34.91;18.07
54900;BME280;40801;41.924;25.562;2023-10-09T11:15:36;100215.56;;;34.81;17.31
54900;BME280;40801;41.924;25.562;2023-10-09T11:18:15;100211.44;;;35.32;16.94
54900;BME280;40801;41.924;25.562;2023-10-09T11:20:54;100202.16;;;35.57;17.29
54900;BME280;40801;41.924;25.562;2023-10-09T11:23:30;100206.16;;;34.49;18.22
54900;BME280;40801;41.924;25.562;2023-10-09T11:26:15;100191.03;;;34.72;18.08
54900;BME280;40801;41.924;25.562;2023-10-09T11:31:39;100186.31;;;34.56;18.05
54900;BME280;40801;41.924;25.562;2023-10-09T11:34:17;100183.41;;;34.85;17.37
54900;BME280;40801;41.924;25.562;2023-10-09T11:36:54;100176.50;;;35.12;17.50
54900;BME280;40801;41.924;25.562;2023-10-09T11:39:31;100181.81;;;35.31;16.84
54900;BME280;40801;41.924;25.562;2023-10-09T11:42:07;100170.69;;;35.84;16.89
54900;BME280;40801;41.924;25.562;2023-10-09T11:44:38;100168.66;;;35.85;16.32
54900;BME280;40801;41.924;25.562;2023-10-09T11:47:05;100166.56;;;34.85;17.57
54900;BME280;40801;41.924;25.562;2023-10-09T11:49:54;100169.13;;;35.61;17.43
54900;BME280;40801;41.924;25.562;2023-10-09T11:52:26;100156.75;;;36.03;16.67
54900;BME280;40801;41.924;25.562;2023-10-09T11:55:02;100151.41;;;36.26;16.49
54900;BME280;40801;41.924;25.562;2023-10-09T11:57:28;100149.59;;;36.02;16.64
54900;BME280;40801;41.924;25.562;2023-10-09T11:59:59;100150.28;;;36.15;16.87
54900;BME280;40801;41.924;25.562;2023-10-09T12:02:35;100144.41;;;35.91;17.23
54900;BME280;40801;41.924;25.562;2023-10-09T12:05:09;100138.78;;;35.47;17.62
54900;BME280;40801;41.924;25.562;2023-10-09T12:07:40;100124.44;;;35.11;17.96
54900;BME280;40801;41.924;25.562;2023-10-09T12:10:05;100124.59;;;35.07;17.56
54900;BME280;40801;41.924;25.562;2023-10-09T12:12:35;100113.72;;;35.53;17.74
54900;BME280;40801;41.924;25.562;2023-10-09T12:15:01;100113.41;;;34.82;18.21
54900;BME280;40801;41.924;25.562;2023-10-09T12:17:30;100119.16;;;35.13;17.51
54900;BME280;40801;41.924;25.562;2023-10-09T12:19:55;100116.81;;;35.11;17.75
54900;BME280;40801;41.924;25.562;2023-10-09T12:22:21;100121.66;;;35.32;17.25
54900;BME280;40801;41.924;25.562;2023-10-09T12:24:47;100120.22;;;35.06;17.58
54900;BME280;40801;41.924;25.562;2023-10-09T12:27:13;100116.19;;;35.29;16.96
54900;BME280;40801;41.924;25.562;2023-10-09T12:29:38;100107.75;;;35.94;16.82
54900;BME280;40801;41.924;25.562;2023-10-09T12:32:10;100101.84;;;36.02;16.54
54900;BME280;40801;41.924;25.562;2023-10-09T12:34:36;100100.38;;;36.19;16.59
54900;BME280;40801;41.924;25.562;2023-10-09T12:37:03;100086.47;;;36.15;17.03
54900;BME280;40801;41.924;25.562;2023-10-09T12:39:29;100084.84;;;35.74;17.20
54900;BME280;40801;41.924;25.562;2023-10-09T12:42:01;100092.94;;;35.94;16.34
54900;BME280;40801;41.924;25.562;2023-10-09T12:44:32;100092.78;;;35.66;16.92
54900;BME280;40801;41.924;25.562;2023-10-09T12:46:59;100088.75;;;35.77;17.04
54900;BME280;40801;41.924;25.562;2023-10-09T12:49:29;100095.25;;;34.99;17.60
54900;BME280;40801;41.924;25.562;2023-10-09T12:51:54;100075.16;;;35.00;16.78
54900;BME280;40801;41.924;25.562;2023-10-09T12:54:21;100061.88;;;34.66;17.40
54900;BME280;40801;41.924;25.562;2023-10-09T12:56:52;100069.38;;;34.82;17.94
54900;BME280;40801;41.924;25.562;2023-10-09T12:59:17;100069.56;;;35.00;17.36
54900;BME280;40801;41.924;25.562;2023-10-09T13:01:45;100069.06;;;34.67;16.88
54900;BME280;40801;41.924;25.562;2023-10-09T13:04:14;100063.75;;;34.82;17.39
54900;BME280;40801;41.924;25.562;2023-10-09T13:06:43;100065.25;;;33.89;17.88
54900;BME280;40801;41.924;25.562;2023-10-09T13:09:13;100055.72;;;33.99;17.76
54900;BME280;40801;41.924;25.562;2023-10-09T13:11:42;100058.59;;;34.46;16.46
54900;BME280;40801;41.924;25.562;2023-10-09T13:14:09;100052.69;;;34.66;17.35
54900;BME280;40801;41.924;25.562;2023-10-09T13:16:47;100039.56;;;34.41;17.13
54900;BME280;40801;41.924;25.562;2023-10-09T13:19:15;100053.75;;;33.16;17.96
54900;BME280;40801;41.924;25.562;2023-10-09T13:21:40;100039.91;;;33.67;17.37
54900;BME280;40801;41.924;25.562;2023-10-09T13:24:07;100041.91;;;34.77;16.37
54900;BME280;40801;41.924;25.562;2023-10-09T13:26:41;100026.31;;;34.89;16.91
54900;BME280;40801;41.924;25.562;2023-10-09T13:29:08;100026.97;;;35.15;17.21
54900;BME280;40801;41.924;25.562;2023-10-09T13:31:35;100017.56;;;34.87;16.85